Terminal Aerodrome Forecast
Issued by NWS

Home | Current Version | Previous Version | Text Only | Print | Product List | Glossary On
Versions: 1 2 3 4 5 6 7 8 9 10 11 12 13 14 15 16 17 18 19 20 21 22 23 24 25 26 27 28 29
000
FTUS45 KGJT 281730
TAFVEL
TAF
KVEL 281730Z 2818/2918 14003KT P6SM SCT140 BKN200
     FM281900 18005KT P6SM VCTS SCT100CB BKN150
     FM290200 26005KT P6SM VCSH OVC100
     FM291200 VRB03KT P6SM VCSH BKN100=

USA.gov is the U.S. government's official web portal to all federal, state and local government web resources and services.